Time;durP1;ratioP1;P1;durP2;ratioP2;P2;SDS_P1;SDS_P2;PMS_P1;PMS_P2;Temp;Humidity;BMP_temperature;BMP_pressure;BME280_temperature;BME280_humidity;BME280_pressure;Samples;Min_cycle;Max_cycle;Signal;HPM_P1;HPM_P2
2021/12/01 00:01:15;;;;;;;1.10;1.08;;;;;;;-2.38;83.86;96225.63;4861868;29;20138;-73
2021/12/01 00:03:41;;;;;;;3.75;1.75;;;;;;;-2.47;83.72;96210.63;4846035;29;20403;-72
2021/12/01 00:06:05;;;;;;;2.05;1.38;;;;;;;-2.40;83.22;96219.66;4872594;29;20058;-68
2021/12/01 00:08:30;;;;;;;1.42;1.33;;;;;;;-2.53;85.66;96221.53;4872604;29;20044;-67
2021/12/01 00:10:55;;;;;;;6.22;1.60;;;;;;;-2.50;86.46;96220.47;4852340;29;20061;-69
2021/12/01 00:13:21;;;;;;;2.33;1.75;;;;;;;-2.44;87.66;96235.66;4850604;29;20044;-68
2021/12/01 00:15:49;;;;;;;2.13;1.58;;;;;;;-2.35;88.17;96242.78;4867477;29;20074;-68
2021/12/01 00:18:14;;;;;;;3.25;2.10;;;;;;;-2.48;87.61;96232.44;4850286;29;20059;-68
2021/12/01 00:20:40;;;;;;;20.20;4.03;;;;;;;-2.47;88.28;96246.31;4868333;29;20044;-67
2021/12/01 00:23:05;;;;;;;1.88;1.27;;;;;;;-2.37;87.61;96237.69;4850686;29;20049;-69
2021/12/01 00:25:32;;;;;;;1.00;0.80;;;;;;;-2.46;87.40;96242.75;4866787;29;20083;-67
2021/12/01 00:27:57;;;;;;;2.47;1.63;;;;;;;-2.50;87.11;96241.34;4882841;29;20055;-68
2021/12/01 00:30:23;;;;;;;2.83;1.60;;;;;;;-2.43;87.11;96247.75;4870103;29;20044;-66
2021/12/01 00:32:48;;;;;;;1.85;1.30;;;;;;;-2.39;86.84;96255.25;4872940;29;20123;-68
2021/12/01 00:35:14;;;;;;;5.00;1.92;;;;;;;-2.40;86.88;96264.00;4887588;29;20079;-67
2021/12/01 00:37:42;;;;;;;1.80;1.23;;;;;;;-2.40;86.26;96263.19;4872215;29;20050;-67
2021/12/01 00:40:10;;;;;;;2.70;1.48;;;;;;;-2.49;86.25;96269.09;4888377;29;20043;-68
2021/12/01 00:42:35;;;;;;;1.70;1.27;;;;;;;-2.47;85.80;96267.16;4888651;29;20589;-67
2021/12/01 00:45:06;;;;;;;3.83;1.67;;;;;;;-2.42;86.20;96267.66;4869762;29;20570;-66
2021/12/01 00:47:42;;;;;;;1.85;0.82;;;;;;;-2.28;86.02;96264.88;4895484;29;20054;-71
2021/12/01 00:50:09;;;;;;;3.45;1.73;;;;;;;-2.46;86.37;96263.63;4898585;29;20047;-70
2021/12/01 00:52:34;;;;;;;2.47;1.77;;;;;;;-2.55;85.97;96262.53;4898525;29;20051;-72
2021/12/01 00:54:58;;;;;;;7.07;1.98;;;;;;;-2.57;85.95;96259.19;4898871;29;20055;-73
2021/12/01 00:57:23;;;;;;;2.00;1.35;;;;;;;-2.39;85.64;96264.84;4898554;29;20044;-72
2021/12/01 00:59:48;;;;;;;1.35;1.08;;;;;;;-2.39;86.20;96264.84;4865682;29;20050;-70
2021/12/01 01:02:12;;;;;;;1.67;1.45;;;;;;;-2.50;85.66;96257.81;4881308;29;20077;-70
2021/12/01 01:04:37;;;;;;;1.20;0.70;;;;;;;-2.29;85.48;96265.81;4881302;29;20044;-72
2021/12/01 01:07:03;;;;;;;2.45;1.48;;;;;;;-2.34;85.19;96265.31;4881233;29;20138;-71
2021/12/01 01:09:31;;;;;;;1.38;0.93;;;;;;;-2.39;85.94;96270.91;4898195;29;20086;-71
2021/12/01 01:17:38;;;;;;;3.05;1.67;;;;;;;-2.45;87.51;96279.16;4898691;29;20052;-69
2021/12/01 01:20:06;;;;;;;3.33;1.40;;;;;;;-2.37;88.25;96276.81;4881214;29;20058;-68
2021/12/01 01:22:31;;;;;;;2.20;1.50;;;;;;;-2.41;87.90;96277.16;4878469;29;20040;-68
2021/12/01 01:24:56;;;;;;;4.78;2.22;;;;;;;-2.48;88.50;96281.97;4879313;29;20048;-69
2021/12/01 01:27:21;;;;;;;2.63;1.38;;;;;;;-2.45;88.17;96263.50;4876209;29;20066;-70
2021/12/01 01:29:45;;;;;;;1.38;1.27;;;;;;;-2.45;88.07;96279.16;4882400;29;20529;-69
2021/12/01 01:32:11;;;;;;;1.40;1.15;;;;;;;-2.36;87.83;96275.88;4862714;29;20062;-72
2021/12/01 01:34:35;;;;;;;3.05;1.92;;;;;;;-2.48;88.00;96286.41;4875745;29;20048;-75
2021/12/01 01:37:00;;;;;;;3.30;2.13;;;;;;;-2.50;87.73;96276.06;4907005;29;20047;-75
2021/12/01 01:39:25;;;;;;;2.03;1.42;;;;;;;-2.43;87.15;96266.00;4881147;29;20054;-75
2021/12/01 01:41:52;;;;;;;1.88;1.65;;;;;;;-2.47;87.00;96277.59;4881253;29;20051;-76
2021/12/01 01:44:17;;;;;;;4.35;2.00;;;;;;;-2.36;87.83;96275.03;4888957;29;20145;-75
2021/12/01 01:46:41;;;;;;;2.13;1.35;;;;;;;-2.34;86.86;96279.19;4885011;29;20090;-72
2021/12/01 01:49:11;;;;;;;2.67;1.45;;;;;;;-2.35;86.74;96279.31;4902300;29;20054;-76
2021/12/01 01:51:37;;;;;;;2.25;1.67;;;;;;;-2.38;86.08;96282.16;4870415;29;20044;-77
2021/12/01 01:54:03;;;;;;;2.85;1.88;;;;;;;-2.44;85.73;96283.44;4883800;29;20126;-73
2021/12/01 01:56:28;;;;;;;5.70;2.30;;;;;;;-2.51;85.58;96278.78;4901000;29;20127;-70
2021/12/01 01:58:54;;;;;;;2.65;1.98;;;;;;;-2.47;85.54;96285.41;4867888;29;20039;-72
2021/12/01 02:02:04;;;;;;;1.98;1.75;;;;;;;-2.38;85.43;96284.78;4868067;29;20047;-71
2021/12/01 02:04:06;;;;;;;2.15;1.60;;;;;;;-2.34;84.73;96284.41;4876829;29;20987;-71
2021/12/01 02:06:31;;;;;;;3.58;1.92;;;;;;;-2.39;84.68;96286.53;4900353;29;20047;-71
2021/12/01 02:08:58;;;;;;;2.75;2.05;;;;;;;-2.41;84.83;96288.44;4901092;29;20050;-75
2021/12/01 02:11:23;;;;;;;1.38;1.02;;;;;;;-2.33;84.60;96298.28;4884430;29;20056;-76
2021/12/01 02:13:50;;;;;;;2.40;2.03;;;;;;;-2.43;84.40;96298.13;4901425;29;20043;-76
2021/12/01 02:16:16;;;;;;;2.40;1.52;;;;;;;-2.38;84.75;96297.81;4884508;29;20047;-76
2021/12/01 02:18:41;;;;;;;3.35;2.03;;;;;;;-2.39;84.69;96301.38;4900190;29;20039;-75
2021/12/01 02:21:06;;;;;;;2.45;1.52;;;;;;;-2.45;84.59;96296.56;4883177;29;20525;-72
2021/12/01 02:23:31;;;;;;;1.45;1.30;;;;;;;-2.35;84.20;96311.44;4882919;29;20517;-73
2021/12/01 02:25:56;;;;;;;2.10;1.77;;;;;;;-2.31;84.62;96309.44;4900387;29;20135;-73
2021/12/01 02:28:21;;;;;;;2.22;2.00;;;;;;;-2.63;84.56;96303.97;4883315;29;20134;-71
2021/12/01 02:30:46;;;;;;;2.75;2.08;;;;;;;-2.53;84.08;96309.34;4883137;29;20047;-70
2021/12/01 02:33:11;;;;;;;3.08;1.83;;;;;;;-2.39;84.43;96312.63;4900112;29;20067;-70
2021/12/01 02:35:36;;;;;;;2.42;1.73;;;;;;;-2.43;84.73;96305.97;4899604;29;20078;-69
2021/12/01 02:38:03;;;;;;;1.75;1.35;;;;;;;-2.27;84.50;96322.16;4867069;29;20047;-70
2021/12/01 02:40:27;;;;;;;1.58;1.42;;;;;;;-2.17;84.33;96322.31;4899861;29;20146;-72
2021/12/01 02:42:52;;;;;;;3.22;2.03;;;;;;;-2.28;84.50;96320.50;4901142;29;20142;-71
2021/12/01 02:45:17;;;;;;;4.00;1.92;;;;;;;-2.40;84.56;96315.34;4901893;29;20047;-70
2021/12/01 02:47:42;;;;;;;1.85;1.45;;;;;;;-2.30;84.51;96332.00;4899366;29;20130;-71
2021/12/01 02:50:07;;;;;;;1.65;1.40;;;;;;;-2.24;84.49;96315.88;4882867;29;20047;-72
2021/12/01 02:52:34;;;;;;;2.95;1.80;;;;;;;-2.30;84.58;96319.78;4882836;29;20135;-71
2021/12/01 02:54:59;;;;;;;2.70;1.73;;;;;;;-2.40;84.14;96317.97;4899941;29;20055;-71
2021/12/01 02:57:25;;;;;;;1.85;1.55;;;;;;;-2.30;83.87;96329.38;4899744;29;20044;-71
2021/12/01 02:59:50;;;;;;;1.60;1.33;;;;;;;-2.26;83.66;96318.59;4900108;29;20043;-71
2021/12/01 03:02:15;;;;;;;2.15;1.63;;;;;;;-2.22;84.00;96321.81;4896691;29;20176;-71
2021/12/01 03:04:40;;;;;;;1.40;1.10;;;;;;;-2.31;83.72;96332.94;4864626;29;20052;-72
2021/12/01 03:07:07;;;;;;;1.70;1.55;;;;;;;-2.45;83.61;96325.25;4881097;29;20048;-73
2021/12/01 03:09:31;;;;;;;1.95;1.58;;;;;;;-2.39;83.90;96328.28;4864386;29;20048;-71
2021/12/01 03:11:56;;;;;;;1.77;1.48;;;;;;;-2.47;83.47;96324.53;4881045;29;20058;-72
2021/12/01 03:14:21;;;;;;;1.88;1.63;;;;;;;-2.34;83.59;96331.38;4880911;29;20050;-71
2021/12/01 03:16:48;;;;;;;1.70;1.55;;;;;;;-2.25;83.44;96335.06;4863679;29;20047;-71
2021/12/01 03:19:12;;;;;;;1.40;1.30;;;;;;;-2.33;83.57;96337.41;4863878;29;20048;-71
2021/12/01 03:21:41;;;;;;;1.48;0.95;;;;;;;-2.14;83.75;96334.31;4848696;29;20047;-71
2021/12/01 03:24:07;;;;;;;1.83;1.50;;;;;;;-2.20;83.39;96343.41;4864277;29;20048;-72
2021/12/01 03:26:33;;;;;;;2.40;1.80;;;;;;;-2.41;82.71;96335.38;4881072;29;20075;-72
2021/12/01 03:28:58;;;;;;;1.88;1.73;;;;;;;-2.43;83.10;96337.25;4833172;29;20808;-72
2021/12/01 03:31:23;;;;;;;0.38;0.38;;;;;;;-2.24;83.11;96344.56;4880935;29;20518;-72
2021/12/01 03:33:48;;;;;;;2.65;1.85;;;;;;;-2.49;82.44;96337.72;4868835;29;20035;-72
2021/12/01 03:36:13;;;;;;;2.85;1.83;;;;;;;-2.62;82.74;96337.75;4860900;29;20143;-73
2021/12/01 03:38:38;;;;;;;3.13;1.88;;;;;;;-2.55;82.55;96343.34;4868524;29;20044;-73
2021/12/01 03:41:02;;;;;;;2.25;1.00;;;;;;;-2.30;83.38;96334.59;4865987;29;20080;-68
2021/12/01 03:43:27;;;;;;;2.78;1.95;;;;;;;-2.51;82.27;96336.16;4882920;29;20556;-69
2021/12/01 03:45:52;;;;;;;2.40;1.80;;;;;;;-2.54;82.31;96329.38;4889805;29;20499;-67
2021/12/01 03:48:17;;;;;;;3.80;2.20;;;;;;;-2.72;82.53;96341.13;4899506;29;20201;-71
2021/12/01 03:50:48;;;;;;;5.35;2.55;;;;;;;-2.50;83.15;96335.22;4882336;29;20454;-69
2021/12/01 03:53:13;;;;;;;3.75;2.33;;;;;;;-2.46;83.15;96332.25;4882206;29;20130;-69
2021/12/01 03:55:39;;;;;;;3.22;2.30;;;;;;;-2.46;83.27;96329.66;4882324;29;20132;-69
2021/12/01 03:58:04;;;;;;;2.47;1.65;;;;;;;-2.52;83.44;96339.69;4881630;29;20047;-70
2021/12/01 04:00:29;;;;;;;1.88;1.48;;;;;;;-2.53;83.42;96341.47;4899463;29;20048;-69
2021/12/01 04:02:54;;;;;;;5.07;2.55;;;;;;;-2.36;83.76;96340.25;4899106;29;20094;-69
2021/12/01 04:05:19;;;;;;;3.60;2.28;;;;;;;-2.47;83.03;96341.03;4881706;29;20067;-68
2021/12/01 04:07:44;;;;;;;3.28;2.13;;;;;;;-2.51;83.02;96343.97;4898928;29;20102;-69
2021/12/01 04:10:12;;;;;;;2.85;2.22;;;;;;;-2.51;84.36;96344.81;4881906;29;20051;-68
2021/12/01 04:12:37;;;;;;;3.45;1.63;;;;;;;-2.50;84.54;96343.88;4898974;29;20362;-68
2021/12/01 04:15:03;;;;;;;3.38;2.80;;;;;;;-2.61;84.49;96343.81;4898799;29;20401;-68
2021/12/01 04:17:28;;;;;;;2.45;1.83;;;;;;;-2.55;83.65;96353.78;4882076;29;20046;-69
2021/12/01 04:19:53;;;;;;;6.05;3.08;;;;;;;-2.58;83.83;96349.63;4898892;29;20051;-71
2021/12/01 04:22:17;;;;;;;2.47;2.00;;;;;;;-2.42;83.60;96359.78;4881819;29;20043;-71
2021/12/01 04:24:42;;;;;;;3.75;2.45;;;;;;;-2.65;83.43;96348.41;4881563;29;20047;-69
2021/12/01 04:27:07;;;;;;;2.20;1.77;;;;;;;-2.59;82.81;96342.72;4881824;29;20079;-70
2021/12/01 04:29:32;;;;;;;3.47;2.20;;;;;;;-2.58;82.50;96359.22;4899227;29;20075;-69
2021/12/01 04:31:57;;;;;;;2.50;1.65;;;;;;;-2.57;82.57;96353.91;4898946;29;20481;-69
2021/12/01 04:34:21;;;;;;;3.13;2.30;;;;;;;-2.65;82.42;96361.44;4881681;29;20498;-69
2021/12/01 04:36:49;;;;;;;3.58;2.67;;;;;;;-2.57;82.65;96372.16;4881876;29;20044;-69
2021/12/01 04:39:17;;;;;;;3.05;1.60;;;;;;;-2.47;83.08;96366.28;4881781;29;20074;-70
2021/12/01 11:11:43;;;;;;;6.30;2.97;;;;;;;-2.69;78.22;96704.13;4915870;29;20043;-68
2021/12/01 11:14:17;;;;;;;3.13;2.20;;;;;;;-2.65;77.48;96699.56;4918733;29;20043;-67
2021/12/01 11:16:44;;;;;;;5.20;3.25;;;;;;;-2.78;77.15;96702.13;4901043;29;20479;-66
2021/12/01 11:19:09;;;;;;;6.93;5.18;;;;;;;-2.72;77.69;96704.34;4918848;29;20852;-67
2021/12/01 11:21:34;;;;;;;4.53;2.17;;;;;;;-2.58;77.74;96704.25;4917858;29;20039;-74
2021/12/01 11:24:04;;;;;;;5.35;2.53;;;;;;;-2.60;77.80;96710.53;4885200;29;20051;-72
2021/12/01 11:26:31;;;;;;;1.73;1.40;;;;;;;-2.57;77.26;96707.72;4918421;29;20047;-72
2021/12/01 11:28:59;;;;;;;5.88;3.72;;;;;;;-2.78;75.81;96709.97;4901169;29;20101;-70
2021/12/01 11:31:33;;;;;;;5.53;3.15;;;;;;;-2.79;76.21;96716.09;4919101;29;20050;-74
2021/12/01 11:34:02;;;;;;;3.92;2.10;;;;;;;-2.77;76.28;96716.00;4901417;29;20417;-71
2021/12/01 11:36:42;;;;;;;5.50;3.22;;;;;;;-2.70;76.98;96712.88;4919750;29;20409;-73
2021/12/01 11:39:12;;;;;;;6.25;3.20;;;;;;;-2.74;76.98;96726.25;4898096;29;20074;-72
2021/12/01 11:41:42;;;;;;;7.70;4.00;;;;;;;-2.76;77.01;96726.34;4902945;29;20050;-74
2021/12/01 11:44:07;;;;;;;9.80;4.45;;;;;;;-2.77;77.74;96737.69;4901336;29;20039;-72
2021/12/01 11:46:33;;;;;;;6.70;3.55;;;;;;;-2.82;77.91;96744.16;4901616;29;20050;-73
2021/12/01 11:49:00;;;;;;;7.88;2.67;;;;;;;-2.84;77.72;96733.81;4919947;29;20047;-74
2021/12/01 11:51:37;;;;;;;4.95;3.28;;;;;;;-3.10;76.54;96740.69;4902815;29;20430;-73
2021/12/01 11:54:05;;;;;;;7.30;3.38;;;;;;;-2.99;77.26;96746.06;4903346;29;20047;-71
2021/12/01 11:56:34;;;;;;;4.03;2.75;;;;;;;-2.92;77.37;96741.28;4902809;29;20043;-74
2021/12/01 11:59:00;;;;;;;5.10;3.13;;;;;;;-2.90;77.83;96739.41;4918726;29;20050;-70
2021/12/01 12:01:25;;;;;;;5.05;3.38;;;;;;;-3.00;76.95;96752.19;4901979;29;20417;-73
2021/12/01 12:03:53;;;;;;;5.78;2.92;;;;;;;-2.98;77.09;96752.09;4901211;29;20405;-73
2021/12/01 12:06:26;;;;;;;3.35;2.45;;;;;;;-2.98;77.48;96757.31;4918264;29;20101;-74
2021/12/01 12:08:53;;;;;;;4.03;2.75;;;;;;;-2.96;77.79;96756.31;4900010;29;20683;-73
2021/12/01 12:11:38;;;;;;;4.10;3.13;;;;;;;-2.86;76.95;96764.38;4894416;29;20422;-73
2021/12/01 12:14:19;;;;;;;9.40;3.53;;;;;;;-3.05;76.48;96761.25;4896293;29;20110;-72
2021/12/01 12:17:18;;;;;;;4.68;2.53;;;;;;;-2.92;77.11;96773.41;4897715;29;20048;-74
2021/12/01 12:19:47;;;;;;;3.35;2.60;;;;;;;-2.97;76.53;96764.22;4894513;29;20047;-75
2021/12/01 12:22:17;;;;;;;8.65;3.10;;;;;;;-3.14;75.63;96773.06;4897132;29;20494;-73
2021/12/01 12:24:45;;;;;;;5.63;2.55;;;;;;;-3.10;75.99;96776.34;4897143;29;20145;-73
2021/12/01 12:27:29;;;;;;;3.63;2.08;;;;;;;-3.10;75.89;96782.38;4898403;29;20593;-72
2021/12/01 12:29:57;;;;;;;5.43;3.15;;;;;;;-3.06;76.74;96790.84;4881876;29;20046;-74
2021/12/01 12:32:23;;;;;;;4.70;2.75;;;;;;;-3.08;76.15;96782.28;4897446;29;20491;-70
2021/12/01 12:34:53;;;;;;;5.10;3.33;;;;;;;-3.22;76.39;96785.75;4897528;29;20058;-70
2021/12/01 12:37:24;;;;;;;6.60;3.30;;;;;;;-3.23;75.63;96781.47;4899665;29;20483;-72
2021/12/01 12:39:48;;;;;;;8.68;3.38;;;;;;;-3.33;75.15;96786.41;4897962;29;20043;-78
2021/12/01 12:42:14;;;;;;;5.68;3.35;;;;;;;-3.29;75.80;96800.09;4896324;29;20040;-73
2021/12/01 12:44:47;;;;;;;5.47;2.95;;;;;;;-3.19;75.53;96787.34;4880625;29;20043;-73
2021/12/01 12:47:15;;;;;;;4.75;2.92;;;;;;;-3.14;75.79;96795.69;4899895;29;20047;-75
2021/12/01 12:50:20;;;;;;;3.80;2.38;;;;;;;-3.10;76.12;96798.03;4885047;29;20051;-74
2021/12/01 12:52:47;;;;;;;3.58;2.42;;;;;;;-3.10;76.47;96805.00;4864814;29;20063;-74
2021/12/01 12:55:20;;;;;;;3.75;2.78;;;;;;;-3.05;76.52;96813.38;4838516;29;20040;-72
2021/12/01 12:58:01;;;;;;;6.93;3.38;;;;;;;-3.17;76.59;96811.53;4879581;29;20052;-73
2021/12/01 13:00:35;;;;;;;2.85;2.28;;;;;;;-3.13;76.85;96816.44;4879589;29;20050;-77
2021/12/01 13:03:23;;;;;;;2.70;2.40;;;;;;;-3.22;76.43;96810.97;4883526;29;20143;-73
2021/12/01 13:05:52;;;;;;;3.00;2.45;;;;;;;-3.22;76.11;96814.41;4887718;29;20119;-74
2021/12/01 13:08:26;;;;;;;7.13;3.97;;;;;;;-3.36;75.17;96819.63;4886410;29;20052;-75
2021/12/01 13:10:51;;;;;;;2.88;2.10;;;;;;;-3.43;76.05;96824.38;4886312;29;20060;-73
2021/12/01 13:13:27;;;;;;;4.00;2.85;;;;;;;-3.44;76.38;96816.66;4878870;29;20052;-74
2021/12/01 13:15:53;;;;;;;10.30;2.55;;;;;;;-3.30;76.28;96821.88;4877638;29;20055;-74
2021/12/01 13:18:23;;;;;;;3.25;2.17;;;;;;;-3.24;76.39;96825.84;4861853;29;20052;-74
2021/12/01 13:20:52;;;;;;;6.38;2.60;;;;;;;-3.44;76.38;96824.47;4877480;29;20079;-73
2021/12/01 13:23:26;;;;;;;4.45;2.72;;;;;;;-3.39;76.86;96838.91;4877236;29;20040;-74
2021/12/01 13:25:56;;;;;;;4.40;2.88;;;;;;;-3.36;76.77;96833.47;4877641;29;20088;-73
2021/12/01 13:28:38;;;;;;;5.53;3.00;;;;;;;-3.25;76.76;96837.19;4879339;29;20131;-72
2021/12/01 13:31:11;;;;;;;7.80;3.03;;;;;;;-3.26;77.20;96833.75;4897763;29;20051;-71
2021/12/01 13:33:53;;;;;;;6.72;2.78;;;;;;;-3.25;76.83;96845.00;4902329;29;20051;-73
2021/12/01 13:36:18;;;;;;;4.88;2.40;;;;;;;-3.23;76.73;96848.38;4884986;29;20039;-72
2021/12/01 13:38:43;;;;;;;5.63;3.00;;;;;;;-3.39;76.27;96841.50;4901667;29;20095;-72
2021/12/01 13:41:13;;;;;;;4.82;2.95;;;;;;;-3.36;76.77;96850.88;4901412;29;20039;-75
2021/12/01 13:43:39;;;;;;;3.92;2.60;;;;;;;-3.33;76.78;96861.94;4900391;29;20058;-73
2021/12/01 13:46:04;;;;;;;4.03;2.25;;;;;;;-3.37;76.91;96855.25;4900118;29;20426;-73
2021/12/01 13:48:29;;;;;;;3.60;2.13;;;;;;;-3.26;77.17;96859.81;4884495;29;20134;-72
2021/12/01 13:51:24;;;;;;;5.85;3.22;;;;;;;-3.26;77.40;96865.00;4901702;29;20051;-72
2021/12/01 13:53:50;;;;;;;3.63;2.73;;;;;;;-3.26;76.76;96866.78;4845948;29;20067;-72
2021/12/01 13:56:23;;;;;;;6.28;2.95;;;;;;;-3.27;77.51;96865.94;4861912;29;20511;-72
2021/12/01 13:58:58;;;;;;;3.55;2.58;;;;;;;-3.35;76.64;96862.97;4862008;29;20142;-74
2021/12/01 14:01:23;;;;;;;7.45;2.10;;;;;;;-3.35;76.24;96863.81;4861947;29;20052;-72
2021/12/01 14:03:59;;;;;;;3.15;2.47;;;;;;;-3.47;77.03;96868.91;4862465;29;20064;-72
2021/12/01 14:06:34;;;;;;;5.85;1.98;;;;;;;-3.30;76.81;96873.97;4866462;29;20074;-75
2021/12/01 14:09:16;;;;;;;5.35;2.78;;;;;;;-3.26;76.58;96892.81;4846560;29;20135;-75
2021/12/01 14:11:45;;;;;;;3.35;2.28;;;;;;;-3.39;76.30;96887.53;4861567;29;20060;-75
2021/12/01 14:14:21;;;;;;;3.67;2.00;;;;;;;-3.23;76.68;96877.03;4861151;29;20592;-74
2021/12/01 14:17:00;;;;;;;5.40;3.15;;;;;;;-3.32;76.34;96891.44;4861471;29;20484;-75
2021/12/01 14:19:29;;;;;;;4.18;2.42;;;;;;;-3.41;76.51;96882.41;4862965;29;20539;-76
2021/12/01 14:21:56;;;;;;;3.25;2.13;;;;;;;-3.25;76.56;96881.47;4861422;29;20055;-71
2021/12/01 14:24:25;;;;;;;7.82;2.42;;;;;;;-3.16;76.52;96888.75;4860690;29;20550;-71
2021/12/01 14:26:55;;;;;;;3.78;2.47;;;;;;;-3.35;76.78;96895.06;4860431;29;20055;-76
2021/12/01 14:29:21;;;;;;;3.42;2.45;;;;;;;-3.42;76.84;96898.13;4867542;29;20415;-71
2021/12/01 14:31:59;;;;;;;6.03;2.88;;;;;;;-3.46;76.57;96887.06;4903151;29;20076;-77
2021/12/01 14:34:29;;;;;;;2.72;2.17;;;;;;;-3.50;76.48;96895.97;4907250;29;20043;-74
2021/12/01 14:36:53;;;;;;;6.28;2.85;;;;;;;-3.51;76.82;96899.53;4904695;29;20047;-76
2021/12/01 14:39:20;;;;;;;3.97;2.45;;;;;;;-3.47;77.00;96915.78;4873632;29;20135;-75
2021/12/01 14:41:47;;;;;;;3.90;2.42;;;;;;;-3.51;77.30;96903.91;4887524;29;20597;-75
2021/12/01 14:44:14;;;;;;;6.32;3.08;;;;;;;-3.53;77.31;96906.59;4902989;29;20058;-74
2021/12/01 14:46:39;;;;;;;4.88;2.40;;;;;;;-3.55;76.41;96911.03;4904112;29;20459;-75
2021/12/01 14:49:15;;;;;;;2.75;1.83;;;;;;;-3.62;77.08;96912.34;4902650;29;20057;-76
2021/12/01 14:51:50;;;;;;;5.32;2.92;;;;;;;-3.61;76.90;96913.19;4900998;29;20513;-73
2021/12/01 14:54:18;;;;;;;3.30;2.45;;;;;;;-3.56;77.75;96919.78;4899558;29;20078;-72
2021/12/01 14:57:12;;;;;;;8.77;2.92;;;;;;;-3.61;77.17;96919.19;4900236;29;20046;-75
2021/12/01 14:59:39;;;;;;;4.97;3.10;;;;;;;-3.67;77.85;96925.63;4879850;29;20088;-73
2021/12/01 15:02:22;;;;;;;5.50;2.58;;;;;;;-3.55;77.12;96944.88;4901588;29;20042;-73
2021/12/01 15:05:09;;;;;;;4.43;2.65;;;;;;;-3.59;76.74;96927.75;4898968;29;20403;-74
2021/12/01 15:07:52;;;;;;;3.38;2.50;;;;;;;-3.56;76.62;96929.34;4882916;29;20051;-72
2021/12/01 15:10:27;;;;;;;4.63;2.60;;;;;;;-3.74;76.52;96942.53;4898614;29;20063;-73
2021/12/01 15:13:11;;;;;;;6.07;3.47;;;;;;;-3.69;77.47;96950.03;4898393;29;20039;-72
2021/12/01 15:15:45;;;;;;;4.20;2.30;;;;;;;-3.59;77.69;96950.34;4900030;29;20040;-74
2021/12/01 15:18:21;;;;;;;4.50;2.53;;;;;;;-3.78;77.61;96948.81;4880529;29;20077;-71
2021/12/01 15:20:54;;;;;;;7.35;3.10;;;;;;;-3.71;77.29;96952.75;4893606;29;20213;-71
2021/12/01 15:23:19;;;;;;;5.80;2.88;;;;;;;-3.69;77.53;96955.25;4883079;29;20520;-70
2021/12/01 15:25:44;;;;;;;4.38;2.20;;;;;;;-3.71;78.04;96955.34;4899254;29;20063;-75
2021/12/01 15:28:12;;;;;;;6.88;3.35;;;;;;;-3.75;77.89;96963.44;4901037;29;20494;-76
2021/12/01 15:30:41;;;;;;;4.32;3.08;;;;;;;-3.77;77.64;96954.88;4901335;29;20083;-76
2021/12/01 15:33:10;;;;;;;3.50;2.70;;;;;;;-3.71;77.21;96959.69;4899308;29;20044;-72
2021/12/01 15:35:35;;;;;;;5.65;3.90;;;;;;;-3.76;76.81;96959.16;4882893;29;20047;-73
2021/12/01 15:38:00;;;;;;;3.42;2.20;;;;;;;-3.63;76.58;96961.88;4898749;29;20050;-73
2021/12/01 15:40:25;;;;;;;4.45;2.47;;;;;;;-3.75;74.14;96960.81;4899758;29;20039;-74
2021/12/01 15:42:52;;;;;;;5.40;2.47;;;;;;;-3.64;74.83;96968.84;4898626;29;20039;-74
2021/12/01 15:45:17;;;;;;;4.72;2.22;;;;;;;-3.64;74.55;96957.59;4898801;29;20043;-72
2021/12/01 15:47:42;;;;;;;4.43;3.10;;;;;;;-3.72;73.55;96964.06;4899608;29;20055;-74
2021/12/01 15:50:07;;;;;;;4.30;2.50;;;;;;;-3.77;72.76;96965.28;4882714;29;20051;-73
2021/12/01 15:52:34;;;;;;;5.68;2.72;;;;;;;-3.79;73.49;96967.97;4899576;29;20047;-78
2021/12/01 15:54:59;;;;;;;4.47;1.90;;;;;;;-3.68;73.96;96977.75;4896669;29;20627;-72
2021/12/01 15:57:26;;;;;;;4.78;2.60;;;;;;;-3.78;72.80;96968.81;4881818;29;20050;-70
2021/12/01 15:59:51;;;;;;;2.72;1.65;;;;;;;-3.65;73.84;96967.19;4897222;29;20043;-72
2021/12/01 16:02:15;;;;;;;2.92;2.22;;;;;;;-3.64;73.58;96974.06;4897387;29;20050;-73
2021/12/01 16:04:40;;;;;;;1.45;1.25;;;;;;;-3.62;73.36;96985.25;4865099;29;20056;-70
2021/12/01 16:07:05;;;;;;;3.22;2.00;;;;;;;-3.80;70.88;96983.66;4898055;29;20639;-69
2021/12/01 16:09:32;;;;;;;2.78;2.10;;;;;;;-3.89;70.21;96989.41;4900192;29;20396;-70
2021/12/01 16:11:57;;;;;;;2.28;1.63;;;;;;;-3.85;71.40;96981.34;4884720;29;20065;-68
2021/12/01 16:14:22;;;;;;;2.55;1.63;;;;;;;-3.91;70.09;96993.84;4899504;29;20466;-68
2021/12/01 16:16:47;;;;;;;1.65;1.45;;;;;;;-3.94;68.53;96994.00;4916694;29;20490;-71
2021/12/01 16:19:12;;;;;;;2.47;1.65;;;;;;;-3.84;69.78;96990.00;4899553;29;20054;-74
2021/12/01 16:21:37;;;;;;;2.38;1.88;;;;;;;-3.97;69.03;97000.25;4900247;29;20393;-73
2021/12/01 16:24:01;;;;;;;2.78;1.70;;;;;;;-3.90;70.38;96996.34;4884595;29;20390;-73
2021/12/01 16:26:26;;;;;;;2.03;1.83;;;;;;;-3.83;70.68;97008.09;4917656;29;20150;-73
2021/12/01 16:28:52;;;;;;;3.00;2.03;;;;;;;-3.82;70.43;96998.53;4916457;29;20043;-73
2021/12/01 16:31:18;;;;;;;3.58;2.33;;;;;;;-3.94;69.06;97012.22;4900614;29;20059;-72
2021/12/01 16:33:43;;;;;;;1.63;1.17;;;;;;;-3.91;68.79;96997.28;4917268;29;20077;-73
2021/12/01 16:36:08;;;;;;;1.88;1.73;;;;;;;-4.03;67.65;97006.59;4900340;29;20133;-73
2021/12/01 16:38:35;;;;;;;2.35;1.40;;;;;;;-4.09;67.42;97022.56;4900002;29;20050;-73
2021/12/01 16:41:01;;;;;;;2.95;1.98;;;;;;;-4.11;66.46;97028.78;4884384;29;20055;-73
2021/12/01 16:43:28;;;;;;;3.00;1.65;;;;;;;-4.10;66.21;97014.84;4899603;29;20038;-72
2021/12/01 16:45:53;;;;;;;3.38;1.38;;;;;;;-4.10;67.21;97020.06;4899571;29;20058;-71
2021/12/01 16:48:18;;;;;;;1.65;1.23;;;;;;;-4.03;67.28;97021.38;4916988;29;20069;-72
2021/12/01 16:50:43;;;;;;;1.48;1.27;;;;;;;-4.00;67.17;97026.44;4917259;29;20046;-72
2021/12/01 16:53:09;;;;;;;2.03;1.48;;;;;;;-4.00;66.86;97028.19;4916527;29;20142;-68
2021/12/01 16:55:35;;;;;;;2.92;2.08;;;;;;;-4.03;65.95;97031.78;4916701;29;20051;-73
2021/12/01 16:58:01;;;;;;;0.65;0.57;;;;;;;-4.09;65.41;97034.75;4899443;29;20043;-73
2021/12/01 17:00:33;;;;;;;2.50;1.30;;;;;;;-4.25;64.48;97047.72;4900814;29;20065;-77
2021/12/01 17:03:04;;;;;;;4.13;1.73;;;;;;;-4.10;66.10;97057.31;4918267;29;20160;-76
2021/12/01 17:05:30;;;;;;;0.73;0.73;;;;;;;-3.98;66.62;97047.16;4885409;29;20397;-78
2021/12/01 17:10:21;;;;;;;0.95;0.93;;;;;;;-4.11;65.62;97049.59;4901398;29;20063;-74
2021/12/01 17:12:47;;;;;;;1.95;1.13;;;;;;;-4.06;65.77;97044.94;4900125;29;20043;-75
2021/12/01 17:15:17;;;;;;;2.97;1.60;;;;;;;-4.05;65.67;97042.28;4900939;29;20118;-75
2021/12/01 17:17:42;;;;;;;1.88;1.20;;;;;;;-4.06;66.28;97043.19;4901139;29;20506;-74
2021/12/01 17:20:09;;;;;;;3.70;1.52;;;;;;;-4.13;65.93;97049.66;4901427;29;20517;-72
2021/12/01 17:22:38;;;;;;;1.20;1.10;;;;;;;-4.07;66.10;97054.56;4900267;29;20156;-68
2021/12/01 17:25:10;;;;;;;1.58;1.48;;;;;;;-4.04;66.12;97056.97;4900241;29;20073;-74
2021/12/01 17:27:35;;;;;;;1.63;1.40;;;;;;;-4.24;64.48;97053.75;4884184;29;20542;-68
2021/12/01 17:30:02;;;;;;;1.70;1.50;;;;;;;-4.21;65.27;97069.22;4901791;29;20135;-75
2021/12/01 17:32:29;;;;;;;1.73;1.10;;;;;;;-4.15;65.91;97080.13;4900778;29;20130;-73
2021/12/01 17:34:54;;;;;;;3.08;1.63;;;;;;;-4.27;65.74;97079.94;4869074;29;20058;-73
2021/12/01 17:37:19;;;;;;;2.17;1.25;;;;;;;-4.24;65.72;97080.63;4884982;29;20047;-73
2021/12/01 17:39:46;;;;;;;1.85;1.13;;;;;;;-4.30;65.14;97080.97;4901090;29;20091;-73
2021/12/01 17:42:13;;;;;;;4.78;3.03;;;;;;;-4.27;66.13;97080.78;4900758;29;20055;-71
2021/12/01 17:44:39;;;;;;;4.45;3.17;;;;;;;-4.21;65.43;97085.66;4884926;29;20047;-72
2021/12/01 17:47:07;;;;;;;4.13;2.05;;;;;;;-4.22;65.37;97090.94;4900783;29;20051;-74
2021/12/01 17:49:32;;;;;;;4.15;2.35;;;;;;;-4.21;66.22;97088.28;4885217;29;20414;-74
2021/12/01 17:52:00;;;;;;;2.58;2.13;;;;;;;-4.34;65.84;97095.03;4901444;29;20409;-75
2021/12/01 17:54:25;;;;;;;1.63;1.23;;;;;;;-4.28;66.10;97105.09;4902073;29;20051;-74
2021/12/01 17:56:51;;;;;;;2.10;1.60;;;;;;;-4.18;66.29;97100.28;4900890;29;20122;-74
2021/12/01 17:59:16;;;;;;;3.55;1.42;;;;;;;-4.18;66.58;97106.31;4897352;29;20047;-74
2021/12/01 18:01:43;;;;;;;2.17;1.52;;;;;;;-4.19;67.08;97122.00;4899338;29;20411;-73
2021/12/01 18:04:09;;;;;;;2.85;1.80;;;;;;;-4.20;67.21;97128.97;4900277;29;20134;-73
2021/12/01 18:06:35;;;;;;;3.72;2.33;;;;;;;-4.18;67.57;97123.69;4900945;29;20059;-73
2021/12/01 18:09:00;;;;;;;3.72;1.30;;;;;;;-4.11;68.21;97136.28;4898772;29;20123;-73
2021/12/01 18:11:25;;;;;;;5.32;2.70;;;;;;;-4.21;67.13;97142.88;4880496;29;20068;-73
2021/12/01 18:13:50;;;;;;;3.90;2.15;;;;;;;-4.25;66.88;97125.75;4897797;29;20041;-72
2021/12/01 18:16:17;;;;;;;3.80;2.13;;;;;;;-4.27;66.71;97135.38;4900040;29;20058;-72